createdAt,value
2022-12-24T00:00:16.866Z,10.81
2022-12-24T00:01:16.824Z,10.81
2022-12-24T00:02:16.934Z,10.80
2022-12-24T00:03:16.903Z,10.78
2022-12-24T00:04:16.792Z,10.78
2022-12-24T00:05:16.783Z,10.80
2022-12-24T00:06:16.770Z,10.80
2022-12-24T00:07:16.765Z,10.78
2022-12-24T00:08:16.741Z,10.78
2022-12-24T00:09:16.743Z,10.76
2022-12-24T00:10:16.735Z,10.75
2022-12-24T00:11:16.723Z,10.70
2022-12-24T00:12:16.703Z,10.72
2022-12-24T00:13:16.710Z,10.72
2022-12-24T00:14:16.688Z,10.73
2022-12-24T00:15:16.683Z,10.73
2022-12-24T00:16:16.707Z,10.72
2022-12-24T00:17:16.758Z,10.70
2022-12-24T00:18:16.646Z,10.73
2022-12-24T00:19:16.638Z,10.76
2022-12-24T00:20:16.617Z,10.80
2022-12-24T00:21:16.605Z,10.78
2022-12-24T00:22:16.591Z,10.78
2022-12-24T00:23:16.590Z,10.78
2022-12-24T00:24:16.607Z,10.78
2022-12-24T00:25:16.561Z,10.75
2022-12-24T00:26:16.546Z,10.75
2022-12-24T00:27:16.547Z,10.73
2022-12-24T00:28:16.524Z,10.70
2022-12-24T00:29:16.512Z,10.69
2022-12-24T00:30:16.515Z,10.70
2022-12-24T00:31:16.690Z,10.69
2022-12-24T00:32:16.485Z,10.69
2022-12-24T00:33:22.369Z,10.69
2022-12-24T00:34:16.469Z,10.66
2022-12-24T00:35:16.474Z,10.65
2022-12-24T00:36:16.453Z,10.63
2022-12-24T00:37:16.422Z,10.63
2022-12-24T00:38:16.418Z,10.62
2022-12-24T00:39:16.402Z,10.62
2022-12-24T00:40:16.409Z,10.62
2022-12-24T00:41:16.379Z,10.62
2022-12-24T00:42:16.375Z,10.65
2022-12-24T00:43:16.359Z,10.63
2022-12-24T00:44:16.365Z,10.63
2022-12-24T00:45:16.345Z,10.63
2022-12-24T00:46:16.405Z,10.63
2022-12-24T00:47:16.316Z,10.62
2022-12-24T00:48:16.322Z,10.62
2022-12-24T00:49:16.290Z,10.63
2022-12-24T00:50:16.293Z,10.65
2022-12-24T00:51:16.314Z,10.66
2022-12-24T00:52:16.285Z,10.69
2022-12-24T00:53:16.248Z,10.66
2022-12-24T00:54:16.250Z,10.63
2022-12-24T00:55:16.251Z,10.63
2022-12-24T00:56:16.229Z,10.63
2022-12-24T00:57:16.204Z,10.63
2022-12-24T00:58:16.202Z,10.63
2022-12-24T00:59:16.181Z,10.65
2022-12-24T01:00:16.181Z,10.66
2022-12-24T01:01:16.315Z,10.69
2022-12-24T01:02:16.433Z,10.68
2022-12-24T01:03:16.231Z,10.68
2022-12-24T01:04:16.130Z,10.69
2022-12-24T01:05:16.127Z,10.66
2022-12-24T01:06:16.107Z,10.65
2022-12-24T01:07:16.102Z,10.62
2022-12-24T01:08:16.089Z,10.63
2022-12-24T01:09:16.077Z,10.63
2022-12-24T01:10:16.091Z,10.65
2022-12-24T01:11:16.051Z,10.63
2022-12-24T01:12:16.047Z,10.63
2022-12-24T01:13:16.030Z,10.65
2022-12-24T01:14:16.018Z,10.65
2022-12-24T01:15:16.012Z,10.65
2022-12-24T01:16:16.172Z,10.63
2022-12-24T01:17:15.979Z,10.62
2022-12-24T01:18:15.976Z,10.60
2022-12-24T01:19:15.967Z,10.58
2022-12-24T01:20:15.984Z,10.58
2022-12-24T01:21:15.961Z,10.55
2022-12-24T01:22:15.932Z,10.54
2022-12-24T01:23:15.914Z,10.51
2022-12-24T01:24:15.926Z,10.51
2022-12-24T01:25:15.902Z,10.49
2022-12-24T01:26:15.886Z,10.49
2022-12-24T01:27:15.884Z,10.49
2022-12-24T01:28:15.863Z,10.49
2022-12-24T01:29:15.872Z,10.54
2022-12-24T01:30:15.928Z,10.57
2022-12-24T01:31:15.955Z,10.55
2022-12-24T01:32:15.856Z,10.57
2022-12-24T01:33:15.884Z,10.62
2022-12-24T01:34:15.804Z,10.58
2022-12-24T01:35:15.835Z,10.58
2022-12-24T01:36:16.800Z,10.57
2022-12-24T01:37:15.791Z,10.55
2022-12-24T01:38:15.779Z,10.57
2022-12-24T01:39:15.771Z,10.55
2022-12-24T01:40:15.733Z,10.55
2022-12-24T01:41:15.787Z,10.55
2022-12-24T01:42:15.710Z,10.54
2022-12-24T01:43:15.702Z,10.54
2022-12-24T01:44:15.691Z,10.54
2022-12-24T01:45:15.678Z,10.51
2022-12-24T01:46:15.751Z,10.51
2022-12-24T01:47:15.657Z,10.51
2022-12-24T01:48:15.646Z,10.51
2022-12-24T01:49:15.629Z,10.52
2022-12-24T01:50:15.621Z,10.52
2022-12-24T01:51:15.619Z,10.52
2022-12-24T01:52:15.599Z,10.55
2022-12-24T01:53:15.602Z,10.55
2022-12-24T01:54:15.571Z,10.58
2022-12-24T01:55:15.566Z,10.57
2022-12-24T01:56:15.558Z,10.57
2022-12-24T01:57:15.546Z,10.55
2022-12-24T01:58:15.531Z,10.52
2022-12-24T01:59:15.521Z,10.49
2022-12-24T02:00:15.507Z,10.51
2022-12-24T02:01:15.612Z,10.51
2022-12-24T02:02:15.687Z,10.52
2022-12-24T02:03:15.527Z,10.54
2022-12-24T02:04:15.471Z,10.52
2022-12-24T02:05:15.467Z,10.51
2022-12-24T02:06:15.453Z,10.49
2022-12-24T02:07:15.439Z,10.49
2022-12-24T02:08:15.417Z,10.46
2022-12-24T02:09:15.432Z,10.43
2022-12-24T02:10:15.398Z,10.43
2022-12-24T02:11:15.411Z,10.43
2022-12-24T02:12:15.373Z,10.43
2022-12-24T02:13:15.369Z,10.42
2022-12-24T02:14:15.352Z,10.38
2022-12-24T02:15:15.345Z,10.38
2022-12-24T02:16:15.405Z,10.38
2022-12-24T02:17:15.323Z,10.36
2022-12-24T02:18:15.326Z,10.35
2022-12-24T02:19:15.300Z,10.35
2022-12-24T02:20:15.292Z,10.35
2022-12-24T02:21:15.285Z,10.35
2022-12-24T02:22:15.267Z,10.34
2022-12-24T02:23:15.266Z,10.34
2022-12-24T02:24:15.239Z,10.31
2022-12-24T02:25:15.233Z,10.31
2022-12-24T02:26:15.237Z,10.29
2022-12-24T02:27:15.209Z,10.26
2022-12-24T02:28:15.192Z,10.25
2022-12-24T02:29:15.189Z,10.25
2022-12-24T02:30:15.179Z,10.24
2022-12-24T02:31:15.207Z,10.25
2022-12-24T02:32:15.151Z,10.26
2022-12-24T02:33:15.147Z,10.25
2022-12-24T02:34:15.187Z,10.26
2022-12-24T02:35:15.119Z,10.25
2022-12-24T02:36:15.116Z,10.25
2022-12-24T02:37:15.121Z,10.25
2022-12-24T02:38:15.087Z,10.28
2022-12-24T02:39:15.082Z,10.28
2022-12-24T02:40:16.733Z,10.32
2022-12-24T02:41:15.069Z,10.32
2022-12-24T02:42:15.049Z,10.34
2022-12-24T02:43:15.042Z,10.34
2022-12-24T02:44:15.021Z,10.36
2022-12-24T02:45:15.016Z,10.36
2022-12-24T02:46:15.039Z,10.36
2022-12-24T02:47:14.998Z,10.36
2022-12-24T02:48:14.985Z,10.36
2022-12-24T02:49:14.976Z,10.36
2022-12-24T02:50:14.953Z,10.36
2022-12-24T02:51:14.946Z,10.36
2022-12-24T02:52:14.938Z,10.35
2022-12-24T02:53:14.924Z,10.38
2022-12-24T02:54:14.909Z,10.35
2022-12-24T02:55:14.903Z,10.36
2022-12-24T02:56:14.904Z,10.36
2022-12-24T02:57:14.888Z,10.34
2022-12-24T02:58:14.864Z,10.36
2022-12-24T02:59:14.868Z,10.34
2022-12-24T03:00:14.845Z,10.29
2022-12-24T03:01:14.997Z,10.26
2022-12-24T03:02:15.029Z,10.26
2022-12-24T03:03:14.825Z,10.28
2022-12-24T03:04:14.800Z,10.26
2022-12-24T03:05:14.800Z,10.25
2022-12-24T03:06:14.785Z,10.25
2022-12-24T03:07:14.779Z,10.20
2022-12-24T03:08:14.760Z,10.17
2022-12-24T03:09:14.754Z,10.16
2022-12-24T03:10:14.737Z,10.16
2022-12-24T03:11:14.730Z,10.13
2022-12-24T03:12:14.729Z,10.13
2022-12-24T03:13:14.700Z,10.11
2022-12-24T03:14:14.686Z,10.13
2022-12-24T03:15:14.682Z,10.13
2022-12-24T03:16:14.749Z,10.11
2022-12-24T03:17:14.698Z,10.11
2022-12-24T03:18:14.650Z,10.11
2022-12-24T03:19:14.640Z,10.11
2022-12-24T03:20:14.628Z,10.11
2022-12-24T03:21:14.619Z,10.11
2022-12-24T03:22:14.624Z,10.11
2022-12-24T03:23:14.599Z,10.10
2022-12-24T03:24:14.577Z,10.13
2022-12-24T03:25:14.575Z,10.11
2022-12-24T03:26:14.557Z,10.13
2022-12-24T03:27:14.576Z,10.13
2022-12-24T03:28:14.532Z,10.11
2022-12-24T03:29:14.527Z,10.14
2022-12-24T03:30:14.507Z,10.13
2022-12-24T03:31:14.618Z,10.16
2022-12-24T03:32:14.504Z,10.17
2022-12-24T03:33:14.476Z,10.20
2022-12-24T03:34:14.474Z,10.22
2022-12-24T03:35:14.467Z,10.22
2022-12-24T03:36:14.441Z,10.24
2022-12-24T03:37:14.439Z,10.25
2022-12-24T03:38:14.431Z,10.24
2022-12-24T03:39:14.421Z,10.24
2022-12-24T03:40:14.416Z,10.25
2022-12-24T03:41:14.387Z,10.20
2022-12-24T03:42:14.401Z,10.22
2022-12-24T03:43:14.379Z,10.18
2022-12-24T03:44:14.357Z,10.20
2022-12-24T03:45:14.378Z,10.25
2022-12-24T03:46:14.395Z,10.28
2022-12-24T03:47:14.330Z,10.28
2022-12-24T03:48:14.313Z,10.25
2022-12-24T03:49:14.301Z,10.25
2022-12-24T03:50:14.298Z,10.25
2022-12-24T03:51:14.277Z,10.25
2022-12-24T03:52:14.276Z,10.29
2022-12-24T03:53:14.264Z,10.29
2022-12-24T03:54:14.247Z,10.31
2022-12-24T03:55:14.232Z,10.31
2022-12-24T03:56:14.228Z,10.31
2022-12-24T03:57:14.247Z,10.31
2022-12-24T03:58:14.202Z,10.31
2022-12-24T03:59:14.187Z,10.32
2022-12-24T04:00:14.192Z,10.31
2022-12-24T04:01:14.357Z,10.31
2022-12-24T04:02:14.490Z,10.31
2022-12-24T04:03:14.352Z,10.29
2022-12-24T04:04:14.159Z,10.28
2022-12-24T04:05:14.151Z,10.29
2022-12-24T04:06:14.123Z,10.28
2022-12-24T04:07:14.157Z,10.28
2022-12-24T04:08:14.099Z,10.28
2022-12-24T04:09:14.078Z,10.26
2022-12-24T04:10:14.087Z,10.24
2022-12-24T04:11:14.058Z,10.25
2022-12-24T04:12:14.060Z,10.24
2022-12-24T04:13:14.033Z,10.22
2022-12-24T04:14:14.025Z,10.24
2022-12-24T04:15:14.014Z,10.24
2022-12-24T04:16:14.055Z,10.28
2022-12-24T04:17:14.017Z,10.28
2022-12-24T04:18:13.982Z,10.28
2022-12-24T04:19:13.973Z,10.28
2022-12-24T04:20:13.957Z,10.25
2022-12-24T04:21:13.943Z,10.25
2022-12-24T04:22:13.940Z,10.22
2022-12-24T04:23:13.931Z,10.22
2022-12-24T04:24:13.915Z,10.17
2022-12-24T04:25:13.895Z,10.14
2022-12-24T04:26:13.900Z,10.10
2022-12-24T04:27:13.879Z,10.07
2022-12-24T04:28:13.889Z,10.09
2022-12-24T04:29:13.856Z,10.09
2022-12-24T04:30:13.863Z,10.11
2022-12-24T04:31:13.865Z,10.11
2022-12-24T04:32:13.904Z,10.11
2022-12-24T04:33:13.824Z,10.13
2022-12-24T04:34:13.806Z,10.10
2022-12-24T04:35:13.789Z,10.10
2022-12-24T04:36:13.785Z,10.09
2022-12-24T04:37:13.767Z,10.09
2022-12-24T04:38:13.770Z,10.09
2022-12-24T04:39:13.765Z,10.10
2022-12-24T04:40:13.747Z,10.09
2022-12-24T04:41:19.171Z,10.10
2022-12-24T04:42:13.725Z,10.09
2022-12-24T04:43:13.727Z,10.09
2022-12-24T04:44:13.701Z,10.09
2022-12-24T04:45:13.686Z,10.10
2022-12-24T04:46:13.699Z,10.09
2022-12-24T04:47:13.658Z,10.07
2022-12-24T04:48:13.669Z,10.06
2022-12-24T04:49:13.633Z,10.04
2022-12-24T04:50:13.641Z,10.04
2022-12-24T04:51:13.617Z,10.02
2022-12-24T04:52:13.628Z,10.02
2022-12-24T04:53:13.619Z,10.04
2022-12-24T04:54:13.597Z,10.02
2022-12-24T04:55:13.572Z,10.01
2022-12-24T04:56:13.572Z,9.99
2022-12-24T04:57:13.555Z,10.01
2022-12-24T04:58:13.559Z,9.98
2022-12-24T04:59:13.522Z,9.99
2022-12-24T05:00:13.525Z,10.01
2022-12-24T05:01:13.665Z,10.01
2022-12-24T05:02:13.685Z,9.99
2022-12-24T05:03:13.535Z,9.98
2022-12-24T05:04:13.473Z,9.95
2022-12-24T05:05:13.465Z,9.93
2022-12-24T05:06:13.459Z,9.92
2022-12-24T05:07:13.440Z,9.92
2022-12-24T05:08:13.439Z,9.92
2022-12-24T05:09:13.429Z,9.91
2022-12-24T05:10:13.418Z,9.89
2022-12-24T05:11:13.400Z,9.89
2022-12-24T05:12:13.386Z,9.91
2022-12-24T05:13:13.384Z,9.91
2022-12-24T05:14:13.366Z,9.88
2022-12-24T05:15:13.360Z,9.88
2022-12-24T05:16:13.407Z,9.86
2022-12-24T05:17:13.412Z,9.83
2022-12-24T05:18:13.335Z,9.81
2022-12-24T05:19:13.311Z,9.78
2022-12-24T05:20:13.300Z,9.78
2022-12-24T05:21:13.287Z,9.78
2022-12-24T05:22:13.277Z,9.80
2022-12-24T05:23:13.313Z,9.81
2022-12-24T05:24:13.294Z,9.81
2022-12-24T05:25:13.246Z,9.81
2022-12-24T05:26:13.233Z,9.85
2022-12-24T05:27:13.218Z,9.81
2022-12-24T05:28:13.210Z,9.83
2022-12-24T05:29:13.305Z,9.81
2022-12-24T05:30:13.222Z,9.81
2022-12-24T05:31:13.226Z,9.80
2022-12-24T05:32:13.168Z,9.80
2022-12-24T05:33:13.152Z,9.80
2022-12-24T05:34:13.183Z,9.80
2022-12-24T05:35:13.131Z,9.80
2022-12-24T05:36:13.123Z,9.81
2022-12-24T05:37:13.110Z,9.83
2022-12-24T05:38:13.105Z,9.83
2022-12-24T05:39:15.612Z,9.85
2022-12-24T05:40:13.080Z,9.86
2022-12-24T05:41:13.064Z,9.86
2022-12-24T05:42:13.059Z,9.86
2022-12-24T05:43:13.048Z,9.88
2022-12-24T05:44:13.045Z,9.88
2022-12-24T05:45:13.022Z,9.88
2022-12-24T05:46:13.136Z,9.88
2022-12-24T05:47:13.004Z,9.88
2022-12-24T05:48:12.989Z,9.88
2022-12-24T05:49:12.988Z,9.88
2022-12-24T05:50:12.963Z,9.86
2022-12-24T05:51:12.969Z,9.86
2022-12-24T05:52:12.943Z,9.85
2022-12-24T05:53:12.944Z,9.86
2022-12-24T05:54:12.933Z,9.86
2022-12-24T05:55:12.931Z,9.85
2022-12-24T05:56:12.902Z,9.83
2022-12-24T05:57:12.917Z,9.86
2022-12-24T05:58:12.890Z,9.85
2022-12-24T05:59:18.960Z,9.86
2022-12-24T06:00:12.853Z,9.86
2022-12-24T06:01:12.944Z,9.86
2022-12-24T06:02:12.889Z,9.88
2022-12-24T06:03:12.825Z,9.91
2022-12-24T06:04:12.908Z,9.89
2022-12-24T06:05:12.858Z,9.89
2022-12-24T06:06:12.791Z,9.88
2022-12-24T06:07:12.782Z,9.85
2022-12-24T06:08:12.766Z,9.85
2022-12-24T06:09:12.769Z,9.85
2022-12-24T06:10:12.747Z,9.83
2022-12-24T06:11:12.738Z,9.83
2022-12-24T06:12:12.722Z,9.83
2022-12-24T06:13:12.716Z,9.81
2022-12-24T06:14:12.716Z,9.80
2022-12-24T06:15:14.453Z,9.81
2022-12-24T06:16:12.729Z,9.81
2022-12-24T06:17:12.679Z,9.78
2022-12-24T06:18:12.658Z,9.80
2022-12-24T06:19:12.670Z,9.78
2022-12-24T06:20:12.642Z,9.81
2022-12-24T06:21:12.635Z,9.80
2022-12-24T06:22:12.613Z,9.78
2022-12-24T06:23:12.612Z,9.78
2022-12-24T06:24:12.602Z,9.77
2022-12-24T06:25:12.586Z,9.77
2022-12-24T06:26:12.576Z,9.75
2022-12-24T06:27:12.563Z,9.74
2022-12-24T06:28:12.547Z,9.73
2022-12-24T06:29:12.553Z,9.74
2022-12-24T06:30:12.524Z,9.74
2022-12-24T06:31:12.549Z,9.70
2022-12-24T06:32:12.509Z,9.71
2022-12-24T06:33:12.495Z,9.70
2022-12-24T06:34:12.490Z,9.68
2022-12-24T06:35:12.481Z,9.65
2022-12-24T06:36:17.249Z,9.65
2022-12-24T06:37:12.458Z,9.65
2022-12-24T06:38:12.435Z,9.63
2022-12-24T06:39:12.450Z,9.65
2022-12-24T06:40:12.416Z,9.65
2022-12-24T06:41:12.412Z,9.62
2022-12-24T06:42:12.390Z,9.63
2022-12-24T06:43:12.397Z,9.63
2022-12-24T06:44:12.375Z,9.65
2022-12-24T06:45:12.379Z,9.63
2022-12-24T06:46:12.390Z,9.62
2022-12-24T06:47:12.343Z,9.63
2022-12-24T06:48:12.325Z,9.63
2022-12-24T06:49:12.329Z,9.63
2022-12-24T06:50:12.319Z,9.62
2022-12-24T06:51:12.296Z,9.63
2022-12-24T06:52:12.285Z,9.62
2022-12-24T06:53:12.307Z,9.63
2022-12-24T06:54:12.260Z,9.63
2022-12-24T06:55:12.269Z,9.60
2022-12-24T06:56:12.238Z,9.60
2022-12-24T06:57:12.229Z,9.59
2022-12-24T06:58:12.218Z,9.62
2022-12-24T06:59:12.209Z,9.62
2022-12-24T07:00:12.200Z,9.59
2022-12-24T07:01:12.383Z,9.60
2022-12-24T07:02:12.400Z,9.63
2022-12-24T07:03:12.175Z,9.63
2022-12-24T07:04:19.671Z,9.63
2022-12-24T07:05:12.173Z,9.62
2022-12-24T07:06:12.130Z,9.62
2022-12-24T07:07:12.130Z,9.62
2022-12-24T07:08:12.119Z,9.62
2022-12-24T07:09:12.108Z,9.67
2022-12-24T07:10:12.099Z,9.70
2022-12-24T07:11:12.077Z,9.70
2022-12-24T07:12:12.072Z,9.71
2022-12-24T07:13:12.055Z,9.71
2022-12-24T07:14:12.047Z,9.71
2022-12-24T07:15:12.041Z,9.73
2022-12-24T07:16:12.155Z,9.73
2022-12-24T07:17:12.180Z,9.73
2022-12-24T07:18:11.998Z,9.74
2022-12-24T07:19:11.992Z,9.73
2022-12-24T07:20:11.988Z,9.73
2022-12-24T07:21:11.977Z,9.73
2022-12-24T07:22:15.762Z,9.73
2022-12-24T07:23:11.945Z,9.73
2022-12-24T07:24:11.929Z,9.73
2022-12-24T07:25:11.939Z,9.73
2022-12-24T07:26:11.911Z,9.73
2022-12-24T07:27:11.908Z,9.73
2022-12-24T07:28:11.898Z,9.73
2022-12-24T07:29:11.877Z,9.71
2022-12-24T07:30:11.872Z,9.73
2022-12-24T07:31:11.923Z,9.73
2022-12-24T07:32:11.841Z,9.73
2022-12-24T07:33:11.839Z,9.74
2022-12-24T07:34:11.818Z,9.73
2022-12-24T07:35:11.826Z,9.74
2022-12-24T07:36:11.799Z,9.75
2022-12-24T07:37:11.798Z,9.75
2022-12-24T07:38:11.776Z,9.74
2022-12-24T07:39:11.771Z,9.74
2022-12-24T07:40:11.763Z,9.75
2022-12-24T07:41:11.747Z,9.77
2022-12-24T07:42:11.753Z,9.77
2022-12-24T07:43:11.725Z,9.77
2022-12-24T07:44:11.713Z,9.77
2022-12-24T07:45:11.715Z,9.78
2022-12-24T07:46:11.790Z,9.78
2022-12-24T07:47:11.853Z,9.78
2022-12-24T07:48:11.668Z,9.80
2022-12-24T07:49:11.678Z,9.83
2022-12-24T07:50:11.655Z,9.83
2022-12-24T07:51:11.639Z,9.83
2022-12-24T07:52:11.635Z,9.83
2022-12-24T07:53:11.619Z,9.83
2022-12-24T07:54:11.613Z,9.83
2022-12-24T07:55:11.612Z,9.83
2022-12-24T07:56:13.006Z,9.81
2022-12-24T07:57:11.571Z,9.81
2022-12-24T07:58:11.576Z,9.81
2022-12-24T07:59:11.548Z,9.81
2022-12-24T08:00:11.538Z,9.81
2022-12-24T08:01:11.655Z,9.81
2022-12-24T08:02:17.965Z,9.81
2022-12-24T08:03:11.627Z,9.80
2022-12-24T08:04:11.571Z,9.81
2022-12-24T08:05:11.484Z,9.85
2022-12-24T08:06:12.479Z,9.85
2022-12-24T08:07:11.465Z,9.86
2022-12-24T08:08:11.445Z,9.85
2022-12-24T08:09:11.441Z,9.86
2022-12-24T08:10:11.430Z,9.88
2022-12-24T08:11:11.428Z,9.89
2022-12-24T08:12:11.399Z,9.92
2022-12-24T08:13:11.396Z,9.93
2022-12-24T08:14:11.379Z,9.93
2022-12-24T08:15:11.372Z,9.95
2022-12-24T08:16:11.404Z,9.96
2022-12-24T08:17:11.359Z,9.98
2022-12-24T08:18:11.344Z,9.99
2022-12-24T08:19:11.329Z,10.01
2022-12-24T08:20:11.314Z,10.02
2022-12-24T08:21:11.315Z,10.02
2022-12-24T08:22:11.294Z,10.06
2022-12-24T08:23:11.284Z,10.07
2022-12-24T08:24:11.267Z,10.10
2022-12-24T08:25:11.274Z,10.11
2022-12-24T08:26:11.253Z,10.10
2022-12-24T08:27:11.240Z,10.13
2022-12-24T08:28:11.251Z,10.11
2022-12-24T08:29:11.215Z,10.11
2022-12-24T08:30:13.736Z,10.11
2022-12-24T08:31:11.291Z,10.13
2022-12-24T08:32:11.294Z,10.13
2022-12-24T08:33:11.181Z,10.16
2022-12-24T08:34:11.179Z,10.17
2022-12-24T08:35:11.148Z,10.17
2022-12-24T08:36:11.153Z,10.18
2022-12-24T08:37:11.125Z,10.22
2022-12-24T08:38:11.114Z,10.25
2022-12-24T08:39:11.111Z,10.26
2022-12-24T08:40:11.098Z,10.28
2022-12-24T08:41:11.106Z,10.29
2022-12-24T08:42:11.118Z,10.29
2022-12-24T08:43:11.066Z,10.29
2022-12-24T08:44:11.046Z,10.28
2022-12-24T08:45:11.038Z,10.29
2022-12-24T08:46:11.045Z,10.28
2022-12-24T08:47:11.015Z,10.29
2022-12-24T08:48:11.005Z,10.34
2022-12-24T08:49:10.995Z,10.35
2022-12-24T08:50:10.985Z,10.38
2022-12-24T08:51:10.994Z,10.36
2022-12-24T08:52:10.955Z,10.42
2022-12-24T08:53:10.947Z,10.42
2022-12-24T08:54:10.980Z,10.46
2022-12-24T08:55:10.944Z,10.49
2022-12-24T08:56:10.920Z,10.52
2022-12-24T08:57:10.911Z,10.55
2022-12-24T08:58:10.891Z,10.55
2022-12-24T08:59:10.887Z,10.54
2022-12-24T09:00:10.882Z,10.51
2022-12-24T09:01:10.963Z,10.49
2022-12-24T09:02:11.147Z,10.46
2022-12-24T09:03:10.923Z,10.46
2022-12-24T09:04:10.829Z,10.47
2022-12-24T09:05:10.811Z,10.54
2022-12-24T09:06:10.828Z,10.57
2022-12-24T09:07:10.793Z,10.58
2022-12-24T09:08:10.782Z,10.58
2022-12-24T09:09:10.768Z,10.57
2022-12-24T09:10:10.761Z,10.58
2022-12-24T09:11:10.754Z,10.55
2022-12-24T09:12:10.740Z,10.55
2022-12-24T09:13:10.725Z,10.54
2022-12-24T09:14:10.723Z,10.52
2022-12-24T09:15:10.697Z,10.55
2022-12-24T09:16:10.819Z,10.62
2022-12-24T09:17:10.686Z,10.69
2022-12-24T09:18:10.692Z,10.70
2022-12-24T09:19:10.716Z,10.72
2022-12-24T09:20:10.650Z,10.75
2022-12-24T09:21:10.633Z,10.78
2022-12-24T09:22:10.643Z,10.80
2022-12-24T09:23:10.615Z,10.83
2022-12-24T09:24:10.606Z,10.87
2022-12-24T09:25:10.705Z,10.84
2022-12-24T09:26:10.605Z,10.83
2022-12-24T09:27:10.576Z,10.84
2022-12-24T09:28:10.562Z,10.86
2022-12-24T09:29:10.549Z,10.83
2022-12-24T09:30:10.546Z,10.84
2022-12-24T09:31:10.522Z,10.86
2022-12-24T09:32:10.564Z,10.87
2022-12-24T09:33:10.503Z,10.86
2022-12-24T09:34:10.494Z,10.87
2022-12-24T09:35:10.481Z,10.87
2022-12-24T09:36:10.474Z,10.86
2022-12-24T09:37:10.473Z,10.84
2022-12-24T09:38:10.450Z,10.84
2022-12-24T09:39:10.485Z,10.81
2022-12-24T09:40:10.434Z,10.81
2022-12-24T09:41:10.421Z,10.80
2022-12-24T09:42:10.415Z,10.81
2022-12-24T09:43:10.395Z,10.84
2022-12-24T09:44:10.387Z,10.84
2022-12-24T09:45:10.372Z,10.83
2022-12-24T09:46:10.493Z,10.84
2022-12-24T09:47:10.459Z,10.88
2022-12-24T09:48:10.344Z,10.88
2022-12-24T09:49:10.343Z,10.93
2022-12-24T09:50:10.329Z,10.95
2022-12-24T09:51:10.303Z,11.02
2022-12-24T09:52:10.315Z,11.03
2022-12-24T09:53:10.283Z,11.01
2022-12-24T09:54:10.298Z,11.03
2022-12-24T09:55:10.260Z,11.08
2022-12-24T09:56:10.279Z,11.12
2022-12-24T09:57:10.255Z,11.13
2022-12-24T09:58:10.239Z,11.19
2022-12-24T09:59:10.297Z,11.21
2022-12-24T10:00:10.211Z,11.20
2022-12-24T10:01:10.351Z,11.23
2022-12-24T10:02:10.317Z,11.21
2022-12-24T10:03:10.311Z,11.19
2022-12-24T10:04:10.159Z,11.17
2022-12-24T10:05:10.162Z,11.17
2022-12-24T10:06:10.146Z,11.20
2022-12-24T10:07:10.143Z,11.20
2022-12-24T10:08:10.138Z,11.17
2022-12-24T10:09:10.126Z,11.17
2022-12-24T10:10:10.102Z,11.17
2022-12-24T10:11:10.093Z,11.20
2022-12-24T10:12:10.098Z,11.19
2022-12-24T10:13:10.066Z,11.23
2022-12-24T10:14:10.067Z,11.21
2022-12-24T10:15:10.044Z,11.23
2022-12-24T10:16:10.033Z,11.28
2022-12-24T10:17:10.086Z,11.31
2022-12-24T10:18:10.020Z,11.28
2022-12-24T10:19:10.007Z,11.26
2022-12-24T10:20:10.024Z,11.24
2022-12-24T10:21:09.997Z,11.20
2022-12-24T10:22:09.976Z,11.20
2022-12-24T10:23:09.968Z,11.24
2022-12-24T10:24:09.939Z,11.27
2022-12-24T10:25:09.936Z,11.33
2022-12-24T10:26:09.920Z,11.33
2022-12-24T10:27:09.920Z,11.31
2022-12-24T10:28:09.900Z,11.27
2022-12-24T10:29:09.913Z,11.27
2022-12-24T10:30:15.020Z,11.28
2022-12-24T10:31:09.945Z,11.26
2022-12-24T10:32:09.886Z,11.24
2022-12-24T10:33:09.847Z,11.20
2022-12-24T10:34:09.859Z,11.21
2022-12-24T10:35:09.825Z,11.21
2022-12-24T10:36:12.353Z,11.23
2022-12-24T10:37:09.806Z,11.20
2022-12-24T10:38:09.794Z,11.23
2022-12-24T10:39:09.853Z,11.24
2022-12-24T10:40:09.764Z,11.26
2022-12-24T10:41:09.759Z,11.24
2022-12-24T10:42:09.740Z,11.24
2022-12-24T10:43:09.743Z,11.26
2022-12-24T10:44:09.722Z,11.26
2022-12-24T10:45:09.714Z,11.26
2022-12-24T10:46:09.772Z,11.26
2022-12-24T10:47:09.698Z,11.26
2022-12-24T10:48:09.710Z,11.27
2022-12-24T10:49:09.673Z,11.30
2022-12-24T10:50:09.659Z,11.30
2022-12-24T10:51:09.647Z,11.36
2022-12-24T10:52:09.632Z,11.36
2022-12-24T10:53:09.634Z,11.35
2022-12-24T10:54:09.620Z,11.39
2022-12-24T10:55:09.612Z,11.39
2022-12-24T10:56:09.590Z,11.38
2022-12-24T10:57:09.585Z,11.33
2022-12-24T10:58:09.577Z,11.30
2022-12-24T10:59:09.556Z,11.30
2022-12-24T11:00:09.544Z,11.30
2022-12-24T11:01:09.727Z,11.27
2022-12-24T11:02:09.684Z,11.27
2022-12-24T11:03:09.698Z,11.26
2022-12-24T11:04:09.506Z,11.27
2022-12-24T11:05:09.497Z,11.35
2022-12-24T11:06:09.483Z,11.36
2022-12-24T11:07:09.471Z,11.38
2022-12-24T11:08:09.463Z,11.39
2022-12-24T11:09:09.449Z,11.42
2022-12-24T11:10:09.432Z,11.45
2022-12-24T11:11:09.440Z,11.48
2022-12-24T11:12:09.865Z,11.49
2022-12-24T11:13:36.922Z,11.56
2022-12-24T11:14:09.394Z,11.60
2022-12-24T11:15:09.385Z,11.59
2022-12-24T11:16:09.517Z,11.60
2022-12-24T11:17:09.359Z,11.60
2022-12-24T11:18:09.353Z,11.59
2022-12-24T11:19:09.336Z,11.62
2022-12-24T11:20:09.341Z,11.62
2022-12-24T11:21:09.360Z,11.63
2022-12-24T11:22:09.325Z,11.64
2022-12-24T11:23:09.299Z,11.66
2022-12-24T11:24:09.296Z,11.69
2022-12-24T11:25:09.272Z,11.72
2022-12-24T11:26:09.261Z,11.77
2022-12-24T11:27:09.248Z,11.81
2022-12-24T11:28:09.245Z,11.84
2022-12-24T11:29:09.225Z,11.77
2022-12-24T11:30:11.902Z,11.72
2022-12-24T11:31:09.228Z,11.72
2022-12-24T11:32:09.188Z,11.75
2022-12-24T11:33:09.198Z,11.81
2022-12-24T11:34:09.167Z,11.78
2022-12-24T11:35:09.161Z,11.77
2022-12-24T11:36:09.152Z,11.72
2022-12-24T11:37:14.185Z,11.67
2022-12-24T11:38:09.156Z,11.57
2022-12-24T11:39:09.113Z,11.53
2022-12-24T11:40:09.100Z,11.51
2022-12-24T11:41:09.092Z,11.46
2022-12-24T11:42:09.075Z,11.42
2022-12-24T11:43:14.695Z,11.39
2022-12-24T11:44:09.062Z,11.36
2022-12-24T11:45:09.050Z,11.33
2022-12-24T11:46:09.130Z,11.33
2022-12-24T11:47:09.024Z,11.33
2022-12-24T11:48:09.065Z,11.35
2022-12-24T11:49:09.032Z,11.31
2022-12-24T11:50:18.144Z,11.31
2022-12-24T11:51:08.987Z,11.35
2022-12-24T11:52:08.967Z,11.33
2022-12-24T11:53:08.967Z,11.31
2022-12-24T11:54:08.945Z,11.33
2022-12-24T11:55:15.401Z,11.36
2022-12-24T11:56:08.928Z,11.38
2022-12-24T11:57:08.922Z,11.42
2022-12-24T11:58:08.962Z,11.45
2022-12-24T11:59:08.903Z,11.46
2022-12-24T12:00:08.884Z,11.51
2022-12-24T12:01:15.199Z,11.56
2022-12-24T12:02:08.929Z,11.57
2022-12-24T12:03:08.931Z,11.66
2022-12-24T12:04:08.890Z,11.70
2022-12-24T12:05:08.832Z,11.69
2022-12-24T12:06:08.843Z,11.67
2022-12-24T12:07:14.472Z,11.66
2022-12-24T12:08:08.808Z,11.70
2022-12-24T12:09:08.789Z,11.66
2022-12-24T12:10:08.804Z,11.57
2022-12-24T12:11:08.763Z,11.56
2022-12-24T12:12:08.762Z,11.51
2022-12-24T12:13:14.978Z,11.51
2022-12-24T12:14:08.732Z,11.51
2022-12-24T12:15:08.712Z,11.51
2022-12-24T12:16:08.739Z,11.48
2022-12-24T12:17:08.691Z,11.44
2022-12-24T12:18:08.696Z,11.41
2022-12-24T12:19:14.804Z,11.36
2022-12-24T12:20:08.668Z,11.28
2022-12-24T12:21:08.649Z,11.26
2022-12-24T12:22:08.661Z,11.21
2022-12-24T12:23:08.634Z,11.13
2022-12-24T12:24:08.616Z,11.11
2022-12-24T12:25:08.658Z,11.08
2022-12-24T12:26:08.599Z,11.05
2022-12-24T12:27:08.578Z,11.01
2022-12-24T12:28:08.586Z,11.01
2022-12-24T12:29:08.571Z,11.01
2022-12-24T12:30:08.571Z,10.98
2022-12-24T12:31:15.537Z,10.94
2022-12-24T12:32:08.604Z,10.95
2022-12-24T12:33:08.610Z,10.90
2022-12-24T12:34:08.511Z,10.88
2022-12-24T12:35:08.497Z,10.87
2022-12-24T12:36:08.488Z,10.87
2022-12-24T12:37:14.445Z,10.91
2022-12-24T12:38:08.500Z,10.93
2022-12-24T12:39:08.464Z,10.95
2022-12-24T12:40:08.439Z,10.98
2022-12-24T12:41:08.423Z,10.99
2022-12-24T12:42:08.419Z,10.98
2022-12-24T12:43:13.905Z,10.99
2022-12-24T12:44:08.411Z,11.02
2022-12-24T12:45:08.380Z,11.02
2022-12-24T12:46:08.372Z,11.05
2022-12-24T12:47:08.469Z,11.05
2022-12-24T12:48:08.389Z,11.09
2022-12-24T12:49:08.348Z,11.17
2022-12-24T12:50:08.328Z,11.23
2022-12-24T12:51:08.315Z,11.23
2022-12-24T12:52:08.309Z,11.27
2022-12-24T12:53:08.297Z,11.33
2022-12-24T12:54:08.356Z,11.35
2022-12-24T12:55:08.268Z,11.36
2022-12-24T12:56:08.271Z,11.33
2022-12-24T12:57:08.246Z,11.33
2022-12-24T12:58:08.255Z,11.28
2022-12-24T12:59:08.240Z,11.27